Airfield :
LOGIN :

Register | Disclaimer

   EN    FR    IT 

 










Legend :    VFR   Marginal VFR   IFR   Intensive IFR   Very Intensive IFR
Visi :
Ceiling :
>= 8 km
>= 3000ft
5 to 8 km
1000 to 3000 ft
1500m to 5 km
500 to 1000 ft
800 to 1500m
200 to 500 ft
< 800m
< 200 ft
Symbols :   Thunderstorms  Fog  Heavy snow  Heavy precipitations  Wind > 20 kt
SIGMETs :     Misc.  Thunderstorms  Icing  Turbulence  Mountain Waves  Volcanic Ashes







- Airport Elevation : 600 ft
- IATA code : VIE


LOWW - Vienna Schwechat

CURRENT METAR :
  • 261820Z 34005KT CAVOK 20/09 Q1018 NOSIG

EXPIRED METARs :
  • 261750Z 36005KT CAVOK 20/10 Q1018 NOSIG
  • 261720Z 36007KT CAVOK 21/09 Q1018 NOSIG
  • 261650Z 35009KT 310V020 CAVOK 22/09 Q1018 NOSIG
  • 261620Z 33008KT CAVOK 22/09 Q1018 NOSIG
  • 261550Z 33008KT CAVOK 22/10 Q1018 NOSIG

TAF TAF LOWW
Valid from the 26 at 18:00 until the 28 at 00:00 UTC


261715Z 2618/2724 31003KT CAVOK TX25/2715Z TN11/2703Z
BECMG 2706/2707 01008KT
BECMG 2717/2719 VRB02KT
No reported NOTAMs for that airfield.



MET'MAP, your aeronautical weather chart ! - Copyright ORBIFLY December 2007 - Disclaimer

ORBIFLY MET'MAP TEAM :

Programming & Development : Alexandra Zaïnal
Concept & Development : Baudouin d'Aumeries
Co-Development & Prog : Marc-Olivier Méhu
Technical & hardware support : Manuel Goepfert

Contact : metmap@orbifly.com




SOURCES & CREDITS :

   NOAA